Time;durP1;ratioP1;P1;durP2;ratioP2;P2;SDS_P1;SDS_P2;PMS_P1;PMS_P2;Temp;Humidity;BMP_temperature;BMP_pressure;BME280_temperature;BME280_humidity;BME280_pressure;Samples;Min_cycle;Max_cycle;Signal;HPM_P1;HPM_P2
2021/08/26 00:01:17;;;;;;;5.25;2.90;;;;;;;18.75;70.86;99824.57;1782407;79;21533;-71
2021/08/26 00:06:22;;;;;;;3.30;2.55;;;;;;;18.81;71.25;99821.13;1798889;77;22445;-72
2021/08/26 00:08:50;;;;;;;4.80;2.70;;;;;;;18.81;71.56;99815.77;1780268;79;21336;-71
2021/08/26 00:11:21;;;;;;;4.00;2.72;;;;;;;18.79;71.77;99810.61;1780442;79;20987;-71
2021/08/26 00:13:46;;;;;;;4.05;2.60;;;;;;;18.75;71.96;99808.52;1794279;79;20944;-71
2021/08/26 00:16:13;;;;;;;4.85;2.83;;;;;;;18.74;72.10;99802.34;1783460;79;21402;-71
2021/08/26 00:18:40;;;;;;;5.15;2.70;;;;;;;18.73;72.22;99806.55;1786322;79;21874;-71
2021/08/26 00:21:07;;;;;;;4.92;2.58;;;;;;;18.73;72.24;99813.23;1787234;79;20948;-71
2021/08/26 00:23:35;;;;;;;2.70;2.50;;;;;;;18.70;72.12;99810.91;1789291;79;20940;-71
2021/08/26 00:26:02;;;;;;;3.77;2.72;;;;;;;18.66;72.04;99810.98;1783783;80;21015;-71
2021/08/26 00:28:29;;;;;;;4.35;2.30;;;;;;;18.64;72.02;99811.14;1800971;79;21019;-71
2021/08/26 00:30:57;;;;;;;3.87;2.42;;;;;;;18.60;72.00;99810.67;1786329;79;21792;-71
2021/08/26 00:33:24;;;;;;;3.37;2.50;;;;;;;18.56;71.91;99814.75;1794927;79;20984;-71
2021/08/26 00:35:52;;;;;;;4.75;2.40;;;;;;;18.56;72.06;99808.57;1784012;79;20982;-71
2021/08/26 00:38:21;;;;;;;3.10;2.62;;;;;;;18.54;72.22;99802.08;1784006;79;20939;-71
2021/08/26 00:40:48;;;;;;;3.72;2.50;;;;;;;18.54;72.27;99807.94;1792446;79;20975;-71
2021/08/26 00:43:15;;;;;;;3.15;2.50;;;;;;;18.53;72.28;99807.62;1796604;79;21735;-71
2021/08/26 00:45:44;;;;;;;6.65;2.77;;;;;;;18.53;72.41;99802.27;1789955;79;20996;-72
2021/08/26 00:48:10;;;;;;;2.72;2.45;;;;;;;18.53;72.44;99800.93;1788288;79;20959;-71
2021/08/26 00:50:37;;;;;;;2.75;2.47;;;;;;;18.52;72.49;99790.70;1787760;78;20955;-71
2021/08/26 00:53:03;;;;;;;3.70;2.60;;;;;;;18.52;72.58;99788.03;1784100;79;20976;-72
2021/08/26 00:55:30;;;;;;;5.03;2.65;;;;;;;18.50;72.66;99792.75;1790466;79;22652;-71
2021/08/26 00:57:57;;;;;;;4.00;2.52;;;;;;;18.49;72.58;99791.61;1801555;79;20951;-71
2021/08/26 01:00:25;;;;;;;4.87;2.70;;;;;;;18.45;72.46;99794.34;1802741;79;20987;-71
2021/08/26 01:02:57;;;;;;;3.87;2.55;;;;;;;18.42;72.32;99800.05;1813744;78;21434;-71
2021/08/26 01:05:44;;;;;;;4.10;2.40;;;;;;;18.41;72.22;99809.09;1816259;79;20984;-71
2021/08/26 01:08:17;;;;;;;3.87;2.30;;;;;;;18.37;71.92;99822.52;1814869;79;20976;-71
2021/08/26 01:10:55;;;;;;;2.60;2.20;;;;;;;18.28;71.68;99813.76;1767660;80;21411;-71
2021/08/26 01:13:22;;;;;;;2.50;2.30;;;;;;;18.21;71.73;99806.15;1814049;77;21031;-71
2021/08/26 01:16:14;;;;;;;3.50;2.45;;;;;;;18.19;71.78;99796.98;1787561;79;20948;-71
2021/08/26 01:18:43;;;;;;;3.92;2.60;;;;;;;18.22;71.85;99797.11;1787630;79;20979;-72
2021/08/26 01:21:11;;;;;;;5.45;2.70;;;;;;;18.24;72.05;99793.27;1800061;79;21804;-71
2021/08/26 01:23:43;;;;;;;4.47;2.80;;;;;;;18.25;72.14;99784.23;1793422;79;20948;-71
2021/08/26 01:26:11;;;;;;;4.45;2.37;;;;;;;18.24;72.26;99789.25;1755400;80;21027;-72
2021/08/26 01:28:41;;;;;;;3.27;2.40;;;;;;;18.24;72.29;99795.11;1783904;79;20971;-71
2021/08/26 01:31:09;;;;;;;6.92;2.58;;;;;;;18.20;72.31;99795.14;1784837;79;21026;-72
2021/08/26 01:33:36;;;;;;;4.67;3.00;;;;;;;18.11;72.32;99802.92;1802371;77;22194;-72
2021/08/26 01:36:06;;;;;;;3.77;2.65;;;;;;;18.00;72.35;99798.88;1783925;79;21122;-72
2021/08/26 01:38:34;;;;;;;5.22;3.05;;;;;;;17.93;72.42;99800.61;1784435;79;20991;-72
2021/08/26 01:41:00;;;;;;;5.08;2.67;;;;;;;17.85;72.61;99791.34;1800094;79;21011;-71
2021/08/26 01:43:28;;;;;;;4.83;2.58;;;;;;;17.81;72.77;99790.06;1787646;79;20935;-71
2021/08/26 01:45:57;;;;;;;3.02;2.60;;;;;;;17.80;72.78;99793.23;1783753;79;21846;-73
2021/08/26 01:48:23;;;;;;;4.72;2.85;;;;;;;17.72;72.72;99791.47;1784646;79;21561;-71
2021/08/26 01:50:50;;;;;;;7.70;2.70;;;;;;;17.63;72.82;99799.20;1801800;79;20956;-72
2021/08/26 01:53:18;;;;;;;3.08;2.30;;;;;;;17.57;72.97;99787.93;1784238;79;20952;-73
2021/08/26 01:55:45;;;;;;;3.22;2.47;;;;;;;17.52;73.12;99796.15;1815969;79;20979;-71
2021/08/26 01:58:13;;;;;;;4.00;2.52;;;;;;;17.49;73.16;99794.67;1786866;79;22167;-72
2021/08/26 02:00:39;;;;;;;3.62;2.98;;;;;;;17.46;73.22;99793.17;1781820;79;21074;-72
2021/08/26 02:03:06;;;;;;;4.55;2.40;;;;;;;17.43;73.27;99792.72;1786571;79;21046;-72
2021/08/26 02:05:32;;;;;;;4.97;2.65;;;;;;;17.45;73.29;99805.38;1787802;79;20975;-71
2021/08/26 02:07:59;;;;;;;4.53;2.67;;;;;;;17.47;73.41;99810.05;1787651;79;21097;-71
2021/08/26 02:10:26;;;;;;;4.17;2.40;;;;;;;17.47;73.44;99812.72;1798348;79;21717;-71
2021/08/26 02:12:53;;;;;;;2.98;2.58;;;;;;;17.44;73.50;99816.56;1798134;79;21027;-72
2021/08/26 02:15:19;;;;;;;5.03;2.60;;;;;;;17.43;73.54;99823.42;1785376;79;21031;-72
2021/08/26 02:17:46;;;;;;;2.92;2.35;;;;;;;17.43;73.58;99821.58;1785781;79;21050;-71
2021/08/26 02:20:13;;;;;;;3.50;2.52;;;;;;;17.42;73.37;99824.43;1790088;79;21038;-71
2021/08/26 02:22:39;;;;;;;3.15;2.58;;;;;;;17.38;73.32;99818.63;1784579;79;21793;-71
2021/08/26 02:25:08;;;;;;;3.33;2.20;;;;;;;17.29;73.33;99828.22;1785054;79;20928;-71
2021/08/26 02:27:35;;;;;;;4.35;2.67;;;;;;;17.22;73.27;99825.42;1815650;78;20974;-74
2021/08/26 02:30:01;;;;;;;2.90;2.58;;;;;;;17.18;73.29;99822.80;1803218;79;21564;-71
2021/08/26 02:32:29;;;;;;;3.37;2.60;;;;;;;17.17;73.40;99830.44;1783526;79;21362;-72
2021/08/26 02:34:58;;;;;;;3.85;2.62;;;;;;;17.17;73.47;99826.44;1779803;79;22551;-71
2021/08/26 02:37:25;;;;;;;4.08;2.52;;;;;;;17.13;73.52;99821.14;1781528;80;21499;-71
2021/08/26 02:39:52;;;;;;;4.35;2.80;;;;;;;17.12;73.63;99819.48;1812163;79;21014;-71
2021/08/26 02:42:18;;;;;;;3.33;2.62;;;;;;;17.04;73.50;99821.70;1805349;79;20947;-72
2021/08/26 02:44:46;;;;;;;3.35;2.40;;;;;;;16.97;73.54;99824.73;1783627;80;20976;-72
2021/08/26 02:47:13;;;;;;;3.62;2.35;;;;;;;16.92;73.58;99823.12;1792652;79;22172;-70
2021/08/26 02:49:40;;;;;;;3.85;2.40;;;;;;;16.91;73.67;99820.63;1783775;79;21074;-70
2021/08/26 02:52:06;;;;;;;4.05;2.60;;;;;;;16.93;73.61;99823.44;1785623;79;20956;-71
2021/08/26 02:54:33;;;;;;;3.65;2.40;;;;;;;16.90;73.48;99821.14;1784100;79;21022;-71
2021/08/26 02:56:59;;;;;;;2.77;2.52;;;;;;;16.89;73.45;99814.14;1786093;79;21089;-71
2021/08/26 02:59:26;;;;;;;3.98;2.47;;;;;;;16.90;73.50;99802.47;1803595;78;22148;-70
2021/08/26 03:01:54;;;;;;;3.67;2.58;;;;;;;16.88;73.50;99802.61;1783653;79;20979;-71
2021/08/26 03:04:20;;;;;;;2.55;2.30;;;;;;;16.90;73.44;99800.30;1794307;79;21379;-71
2021/08/26 03:06:47;;;;;;;5.62;2.67;;;;;;;16.90;73.38;99797.64;1796296;79;21389;-71
2021/08/26 03:09:13;;;;;;;3.72;2.50;;;;;;;16.87;73.30;99795.63;1796458;79;21004;-71
2021/08/26 03:11:39;;;;;;;5.55;2.90;;;;;;;16.90;73.32;99789.13;1790826;79;22170;-71
2021/08/26 03:14:06;;;;;;;3.83;2.77;;;;;;;16.89;73.31;99786.14;1811546;79;20967;-71
2021/08/26 03:16:32;;;;;;;2.80;2.45;;;;;;;16.85;73.16;99788.30;1804080;79;21003;-71
2021/08/26 03:18:59;;;;;;;3.10;2.80;;;;;;;16.80;73.22;99782.69;1789959;79;20951;-71
2021/08/26 03:21:25;;;;;;;3.42;2.62;;;;;;;16.79;73.31;99777.03;1787034;79;20987;-71
2021/08/26 03:23:51;;;;;;;2.95;2.75;;;;;;;16.79;73.40;99765.50;1783815;79;22147;-71
2021/08/26 03:26:18;;;;;;;3.25;2.83;;;;;;;16.77;73.41;99758.19;1783645;80;21031;-71
2021/08/26 03:28:44;;;;;;;4.97;2.90;;;;;;;16.77;73.43;99758.19;1786128;79;20936;-71
2021/08/26 03:31:14;;;;;;;4.72;2.80;;;;;;;16.77;73.34;99762.19;1793402;79;20987;-71
2021/08/26 03:33:40;;;;;;;6.97;2.87;;;;;;;16.76;73.36;99764.53;1783843;79;21557;-71
2021/08/26 03:36:07;;;;;;;4.12;3.00;;;;;;;16.78;73.37;99771.84;1783647;80;22794;-70
2021/08/26 03:38:33;;;;;;;5.60;2.70;;;;;;;16.77;73.35;99776.86;1784302;79;21455;-71
2021/08/26 03:41:01;;;;;;;3.77;2.87;;;;;;;16.77;73.45;99778.19;1805173;79;21513;-71
2021/08/26 03:43:30;;;;;;;4.22;3.00;;;;;;;16.78;73.58;99783.34;1797663;79;21501;-70
2021/08/26 03:45:56;;;;;;;4.65;2.72;;;;;;;16.79;73.55;99774.84;1808034;78;20929;-71
2021/08/26 03:48:22;;;;;;;4.35;3.02;;;;;;;16.80;73.60;99773.86;1766289;80;22811;-71
2021/08/26 03:50:49;;;;;;;3.70;3.30;;;;;;;16.82;73.75;99771.33;1771319;81;21043;-70
2021/08/26 03:53:16;;;;;;;3.75;3.08;;;;;;;16.86;73.89;99773.13;1811305;78;20920;-70
2021/08/26 03:55:44;;;;;;;3.40;3.10;;;;;;;16.88;73.99;99771.94;1748695;79;20967;-71
2021/08/26 03:58:10;;;;;;;5.08;3.20;;;;;;;16.86;74.03;99769.12;1786554;79;21085;-71
2021/08/26 04:00:37;;;;;;;4.85;3.12;;;;;;;16.87;74.01;99770.79;1797702;79;22441;-71
2021/08/26 04:03:03;;;;;;;6.03;3.47;;;;;;;16.88;73.96;99774.61;1789698;79;21439;-71
2021/08/26 04:05:30;;;;;;;4.65;3.30;;;;;;;16.91;74.11;99772.11;1790356;78;21078;-71
2021/08/26 04:07:56;;;;;;;6.33;3.60;;;;;;;16.95;74.23;99761.40;1793565;79;21105;-71
2021/08/26 04:10:22;;;;;;;4.75;3.50;;;;;;;17.00;74.39;99756.87;1790830;79;21100;-70
2021/08/26 04:12:50;;;;;;;4.80;4.00;;;;;;;17.04;74.53;99758.17;1794460;79;20988;-70
2021/08/26 04:15:17;;;;;;;3.87;3.33;;;;;;;17.07;74.75;99758.63;1792479;78;21002;-70
2021/08/26 04:17:43;;;;;;;4.12;3.33;;;;;;;17.13;74.90;99760.59;1813029;79;20960;-70
2021/08/26 04:20:11;;;;;;;3.95;3.30;;;;;;;17.20;74.98;99760.72;1790523;79;21074;-70
2021/08/26 04:22:37;;;;;;;3.67;3.33;;;;;;;17.29;75.02;99752.14;1786470;79;21386;-77
2021/08/26 04:25:07;;;;;;;4.58;3.37;;;;;;;17.36;75.03;99749.05;1779962;80;21906;-70
2021/08/26 04:27:33;;;;;;;5.25;3.55;;;;;;;17.43;75.13;99741.98;1789455;79;21006;-70
2021/08/26 04:30:00;;;;;;;6.12;3.65;;;;;;;17.49;75.19;99743.95;1760041;80;21041;-70
2021/08/26 04:32:26;;;;;;;3.95;3.35;;;;;;;17.52;75.23;99748.91;1759764;80;21001;-70
2021/08/26 04:34:53;;;;;;;3.50;3.20;;;;;;;17.57;75.28;99763.90;1779410;80;21053;-71
2021/08/26 04:37:20;;;;;;;4.25;3.47;;;;;;;17.64;75.27;99763.47;1784176;78;21756;-71
2021/08/26 04:39:47;;;;;;;4.50;3.58;;;;;;;17.68;75.20;99763.95;1784275;80;20942;-71
2021/08/26 04:42:14;;;;;;;5.53;3.60;;;;;;;17.74;75.24;99762.73;1761138;80;21381;-70
2021/08/26 04:44:42;;;;;;;3.90;3.20;;;;;;;17.81;75.20;99760.16;1759904;81;21049;-70
2021/08/26 04:47:08;;;;;;;4.03;3.02;;;;;;;17.84;75.14;99763.80;1764897;80;20954;-70
2021/08/26 04:49:35;;;;;;;3.12;2.90;;;;;;;17.89;75.13;99766.77;1767537;80;22245;-73
2021/08/26 04:52:04;;;;;;;3.33;2.98;;;;;;;17.93;74.97;99762.70;1760756;80;21018;-70
2021/08/26 04:54:30;;;;;;;6.47;3.30;;;;;;;17.99;74.82;99757.13;1761046;80;21084;-71
2021/08/26 04:56:57;;;;;;;3.75;3.20;;;;;;;18.05;74.76;99757.74;1785777;80;21429;-71
2021/08/26 04:59:23;;;;;;;4.08;3.00;;;;;;;18.10;74.52;99760.67;1789135;80;21516;-71
2021/08/26 05:01:49;;;;;;;3.75;3.35;;;;;;;18.16;74.41;99765.29;1764086;80;21809;-72
2021/08/26 05:04:23;;;;;;;3.92;2.95;;;;;;;18.19;74.23;99760.07;1766239;80;20985;-71
2021/08/26 05:06:45;;;;;;;4.58;2.95;;;;;;;18.19;74.22;99760.07;1759227;81;21005;-71
2021/08/26 05:09:12;;;;;;;3.98;3.02;;;;;;;18.24;74.23;99757.17;1760095;80;21038;-71
2021/08/26 05:11:38;;;;;;;3.92;3.00;;;;;;;18.33;74.27;99754.38;1761751;78;21019;-72
2021/08/26 05:14:04;;;;;;;3.33;2.98;;;;;;;18.38;74.19;99755.48;1782749;79;22166;-72
2021/08/26 05:16:32;;;;;;;3.45;3.00;;;;;;;18.43;73.87;99756.24;1775644;79;21128;-71
2021/08/26 05:18:59;;;;;;;5.15;2.80;;;;;;;18.44;73.72;99761.94;1780242;78;20967;-72
2021/08/26 05:21:27;;;;;;;4.15;2.90;;;;;;;18.48;73.65;99757.34;1760764;80;21369;-70
2021/08/26 05:23:55;;;;;;;3.95;2.77;;;;;;;18.47;73.43;99758.88;1753834;80;21414;-71
2021/08/26 05:26:22;;;;;;;4.45;3.00;;;;;;;18.51;73.43;99762.83;1748463;82;21794;-73
2021/08/26 05:28:49;;;;;;;3.22;2.90;;;;;;;18.51;73.29;99767.66;1750264;80;20863;-71
2021/08/26 05:31:17;;;;;;;4.50;2.90;;;;;;;18.50;73.11;99768.68;1757311;80;21022;-70
2021/08/26 05:33:43;;;;;;;6.45;3.00;;;;;;;18.53;73.10;99771.52;1776592;80;20990;-71
2021/08/26 05:36:10;;;;;;;3.05;2.75;;;;;;;18.57;72.99;99774.12;1779266;80;21093;-70
2021/08/26 05:38:37;;;;;;;3.33;2.70;;;;;;;18.61;72.83;99770.03;1775928;80;22241;-70
2021/08/26 05:41:03;;;;;;;3.62;2.85;;;;;;;18.64;72.84;99770.19;1771565;80;21050;-70
2021/08/26 05:43:29;;;;;;;4.45;2.65;;;;;;;18.71;72.95;99769.25;1776295;80;21093;-73
2021/08/26 05:45:56;;;;;;;3.85;2.83;;;;;;;18.76;72.84;99772.20;1770015;80;21101;-71
2021/08/26 05:48:22;;;;;;;2.98;2.45;;;;;;;18.79;72.71;99775.00;1771244;80;20982;-71
2021/08/26 05:50:49;;;;;;;6.20;2.80;;;;;;;18.84;72.59;99777.45;1753294;80;21840;-70
2021/08/26 05:53:16;;;;;;;3.77;2.80;;;;;;;18.94;72.46;99778.98;1754577;80;21022;-71
2021/08/26 05:55:43;;;;;;;7.20;2.75;;;;;;;19.03;72.38;99775.16;1754180;81;21520;-71
2021/08/26 05:58:09;;;;;;;3.25;2.77;;;;;;;19.13;72.02;99781.02;1747136;81;20965;-71
2021/08/26 06:00:35;;;;;;;3.98;2.58;;;;;;;19.16;71.59;99775.28;1746803;81;21058;-70
2021/08/26 06:03:02;;;;;;;3.08;2.50;;;;;;;19.15;71.00;99769.10;1741704;81;21790;-73
2021/08/26 06:05:28;;;;;;;4.12;2.85;;;;;;;19.12;70.72;99772.17;1746338;81;20996;-69
2021/08/26 06:07:56;;;;;;;5.45;2.75;;;;;;;19.12;70.52;99771.34;1746095;79;20972;-70
2021/08/26 06:10:22;;;;;;;4.37;2.80;;;;;;;19.07;70.23;99775.09;1752209;81;21028;-69
2021/08/26 06:12:49;;;;;;;4.20;2.72;;;;;;;19.03;70.29;99773.83;1760034;81;21099;-70
2021/08/26 06:15:16;;;;;;;3.20;2.60;;;;;;;19.08;70.35;99774.06;1759470;81;21852;-69
2021/08/26 06:17:43;;;;;;;4.08;2.47;;;;;;;19.12;70.28;99770.00;1756746;81;21052;-71
2021/08/26 06:20:13;;;;;;;3.35;2.37;;;;;;;19.16;70.03;99767.25;1741565;81;21043;-70
2021/08/26 06:22:40;;;;;;;3.00;2.40;;;;;;;19.16;69.92;99767.25;1751580;81;21011;-70
2021/08/26 06:25:07;;;;;;;5.40;2.15;;;;;;;19.21;69.67;99766.69;1757637;80;20991;-71
2021/08/26 06:27:34;;;;;;;3.40;2.40;;;;;;;19.23;69.33;99766.80;1762377;80;22204;-69
2021/08/26 06:30:00;;;;;;;3.30;2.40;;;;;;;19.25;68.97;99768.77;1763482;80;21027;-70
2021/08/26 06:32:27;;;;;;;3.12;2.37;;;;;;;19.26;68.92;99768.27;1805667;78;20986;-71
2021/08/26 06:34:53;;;;;;;5.08;2.20;;;;;;;19.33;69.17;99771.32;1824299;78;20987;-72
2021/08/26 06:37:19;;;;;;;4.10;2.35;;;;;;;19.41;69.24;99777.88;1814437;78;21062;-71
2021/08/26 06:39:46;;;;;;;3.83;2.50;;;;;;;19.51;69.04;99782.91;1791843;80;21793;-70
2021/08/26 06:42:12;;;;;;;2.58;2.37;;;;;;;19.54;68.31;99784.36;1809279;77;21124;-71
2021/08/26 06:44:39;;;;;;;3.20;2.35;;;;;;;19.55;68.05;99780.14;1808354;78;21468;-71
2021/08/26 06:47:06;;;;;;;2.62;2.40;;;;;;;19.54;67.77;99781.69;1791693;78;20992;-71
2021/08/26 06:49:32;;;;;;;3.08;2.77;;;;;;;19.60;67.82;99783.62;1795478;78;20988;-69
2021/08/26 06:51:58;;;;;;;2.75;2.55;;;;;;;19.60;67.28;99784.97;1746238;81;22357;-72
2021/08/26 06:54:25;;;;;;;3.35;2.35;;;;;;;19.61;67.47;99782.60;1730369;80;21064;-68
2021/08/26 06:56:51;;;;;;;3.15;2.70;;;;;;;19.68;67.41;99780.77;1770381;81;21117;-70
2021/08/26 06:59:18;;;;;;;3.67;2.52;;;;;;;19.75;67.34;99778.98;1749995;80;20955;-69
2021/08/26 07:01:47;;;;;;;4.37;2.90;;;;;;;19.80;66.84;99771.70;1743615;81;20934;-70
2021/08/26 07:04:13;;;;;;;4.17;2.90;;;;;;;19.76;66.91;99763.73;1744347;80;22811;-69
2021/08/26 07:06:41;;;;;;;3.55;3.17;;;;;;;19.77;66.75;99766.20;1749891;81;21434;-70
2021/08/26 07:09:08;;;;;;;4.15;3.10;;;;;;;19.81;66.75;99759.45;1748015;80;21387;-70
2021/08/26 07:11:34;;;;;;;3.30;3.00;;;;;;;19.90;66.83;99755.59;1744584;81;21343;-69
2021/08/26 07:14:01;;;;;;;3.80;3.33;;;;;;;20.01;66.98;99754.20;1747960;81;21012;-70
2021/08/26 07:16:27;;;;;;;5.65;3.40;;;;;;;20.05;66.61;99750.09;1751299;81;21889;-71
2021/08/26 07:18:55;;;;;;;3.90;3.60;;;;;;;20.10;66.34;99757.55;1755513;81;21047;-68
2021/08/26 07:21:22;;;;;;;3.98;3.58;;;;;;;20.11;66.20;99757.86;1762317;81;21003;-68
2021/08/26 07:23:49;;;;;;;4.87;3.70;;;;;;;20.12;65.96;99758.17;1750567;81;21105;-68
2021/08/26 07:26:18;;;;;;;4.20;3.80;;;;;;;20.13;66.29;99759.31;1738753;81;20944;-67
2021/08/26 07:28:44;;;;;;;5.47;4.10;;;;;;;20.25;66.37;99757.72;1739602;81;21807;-69
2021/08/26 07:31:11;;;;;;;5.50;3.87;;;;;;;20.34;66.01;99752.19;1801056;79;20999;-69
2021/08/26 07:33:37;;;;;;;6.08;4.47;;;;;;;20.39;65.51;99752.42;1780045;79;20944;-69
2021/08/26 07:36:05;;;;;;;4.72;3.85;;;;;;;20.46;65.66;99749.27;1801207;79;20983;-69
2021/08/26 07:38:32;;;;;;;6.83;4.45;;;;;;;20.56;65.41;99743.03;1786670;79;20999;-70
2021/08/26 07:40:58;;;;;;;5.10;4.60;;;;;;;20.63;65.19;99743.86;1786977;79;22014;-69
2021/08/26 07:43:30;;;;;;;4.70;4.17;;;;;;;20.69;64.66;99739.55;1801159;79;20936;-69
2021/08/26 07:45:53;;;;;;;5.47;4.50;;;;;;;20.73;64.49;99746.98;1803413;79;20960;-69
2021/08/26 07:48:21;;;;;;;6.17;4.28;;;;;;;20.78;64.43;99740.50;1782700;79;21000;-69
2021/08/26 07:50:49;;;;;;;5.47;4.60;;;;;;;20.89;64.67;99745.78;1810947;79;20928;-69
2021/08/26 07:53:16;;;;;;;5.60;5.10;;;;;;;21.03;64.38;99743.41;1796851;79;22207;-69
2021/08/26 07:55:42;;;;;;;5.70;5.08;;;;;;;21.03;63.42;99745.27;1779873;79;21582;-69
2021/08/26 07:58:09;;;;;;;5.42;4.87;;;;;;;21.02;63.45;99747.65;1779938;80;21415;-69
2021/08/26 08:00:36;;;;;;;7.58;4.92;;;;;;;21.10;63.42;99747.45;1780055;79;20961;-69
2021/08/26 08:03:04;;;;;;;5.65;4.72;;;;;;;21.09;63.42;99742.61;1780920;79;21038;-69
2021/08/26 08:05:30;;;;;;;6.65;5.15;;;;;;;21.20;63.55;99741.16;1786772;79;21795;-69
2021/08/26 08:07:58;;;;;;;5.15;4.62;;;;;;;21.30;63.40;99739.44;1779838;80;20988;-68
2021/08/26 08:10:25;;;;;;;6.62;4.90;;;;;;;21.34;63.08;99742.86;1780388;80;21462;-69
2021/08/26 08:12:51;;;;;;;5.87;5.25;;;;;;;21.38;62.90;99746.78;1780098;79;20991;-68
2021/08/26 08:15:17;;;;;;;7.92;5.60;;;;;;;21.37;62.68;99742.96;1780416;80;20940;-69
2021/08/26 08:17:44;;;;;;;6.03;5.42;;;;;;;21.37;62.73;99749.16;1780056;79;21794;-69
2021/08/26 08:20:11;;;;;;;6.42;5.30;;;;;;;21.43;62.92;99746.17;1785530;79;21011;-68
2021/08/26 08:22:37;;;;;;;5.70;5.10;;;;;;;21.53;63.07;99746.58;1791874;77;21474;-68
2021/08/26 08:25:06;;;;;;;7.35;5.65;;;;;;;21.67;63.19;99747.38;1804515;79;21030;-68
2021/08/26 08:27:32;;;;;;;7.65;5.47;;;;;;;21.81;62.64;99739.61;1783286;79;21429;-69
2021/08/26 08:29:59;;;;;;;5.85;5.30;;;;;;;21.85;62.04;99745.38;1809368;79;22235;-69
2021/08/26 08:32:25;;;;;;;6.35;5.70;;;;;;;21.94;61.80;99739.57;1785087;79;21027;-68
2021/08/26 08:34:52;;;;;;;5.90;5.30;;;;;;;22.03;61.71;99735.31;1798368;79;20940;-68
2021/08/26 08:37:18;;;;;;;5.83;5.33;;;;;;;22.09;61.70;99746.58;1798571;79;20995;-68
2021/08/26 08:39:45;;;;;;;6.12;5.53;;;;;;;22.21;61.67;99744.38;1778978;79;20948;-67
2021/08/26 08:42:11;;;;;;;6.00;5.40;;;;;;;22.35;61.03;99742.97;1752810;80;21854;-69
2021/08/26 08:44:37;;;;;;;5.83;5.03;;;;;;;22.42;60.87;99735.70;1759255;79;20991;-69
2021/08/26 08:47:04;;;;;;;7.33;5.40;;;;;;;22.54;60.84;99742.05;1808097;79;21031;-68
2021/08/26 08:49:30;;;;;;;6.03;5.05;;;;;;;22.65;59.86;99733.30;1808902;79;21011;-69
2021/08/26 08:51:57;;;;;;;6.00;5.28;;;;;;;22.74;59.72;99731.17;1785751;79;20925;-70
2021/08/26 08:54:24;;;;;;;5.83;5.22;;;;;;;22.78;58.86;99737.27;1796025;79;22875;-68
2021/08/26 08:56:50;;;;;;;5.83;5.20;;;;;;;22.81;58.90;99742.22;1779939;79;21577;-68
2021/08/26 08:59:16;;;;;;;5.85;5.35;;;;;;;22.74;58.31;99734.69;1806007;77;21466;-70
2021/08/26 09:01:52;;;;;;;5.08;4.60;;;;;;;22.63;58.67;99742.63;1808287;77;21471;-69
2021/08/26 09:04:20;;;;;;;7.28;4.58;;;;;;;22.61;58.98;99744.72;1800482;79;21070;-67
2021/08/26 09:06:50;;;;;;;5.03;4.53;;;;;;;22.67;58.88;99751.39;1789534;79;21007;-69
2021/08/26 09:09:18;;;;;;;6.35;4.75;;;;;;;22.71;58.80;99745.08;1811091;79;21451;-68
2021/08/26 09:11:55;;;;;;;6.03;4.37;;;;;;;22.75;58.56;99740.90;1796252;79;20980;-70
2021/08/26 09:14:25;;;;;;;5.37;4.87;;;;;;;22.88;58.77;99736.83;1779627;79;21544;-69
2021/08/26 09:16:54;;;;;;;5.37;4.85;;;;;;;23.01;58.71;99733.20;1802545;79;21062;-69
2021/08/26 09:19:25;;;;;;;5.12;4.70;;;;;;;23.14;58.58;99735.80;1810581;79;21805;-69
2021/08/26 09:21:52;;;;;;;5.20;4.70;;;;;;;23.20;58.04;99735.45;1802634;79;21007;-69
2021/08/26 09:24:18;;;;;;;6.65;5.45;;;;;;;23.23;58.37;99731.78;1810193;79;21063;-69
2021/08/26 09:26:47;;;;;;;5.87;4.62;;;;;;;23.31;58.42;99738.77;1779703;78;21023;-68
2021/08/26 09:29:14;;;;;;;4.83;4.42;;;;;;;23.29;58.02;99738.17;1779215;80;21421;-68
2021/08/26 09:31:41;;;;;;;5.28;4.72;;;;;;;23.25;58.11;99735.60;1779334;80;23285;-68
2021/08/26 09:34:18;;;;;;;8.25;4.40;;;;;;;23.20;58.49;99741.66;1792195;79;20929;-68
2021/08/26 09:36:51;;;;;;;5.70;4.67;;;;;;;23.21;58.87;99746.00;1784954;79;20939;-68
2021/08/26 09:39:21;;;;;;;4.83;4.30;;;;;;;23.26;58.76;99740.80;1780302;80;21070;-69
2021/08/26 09:41:59;;;;;;;6.33;4.55;;;;;;;23.32;59.01;99737.20;1780087;80;21395;-68
2021/08/26 09:44:30;;;;;;;4.78;4.37;;;;;;;23.42;58.53;99741.57;1788501;79;21709;-68
2021/08/26 09:47:00;;;;;;;5.62;4.53;;;;;;;23.47;58.55;99737.41;1812589;79;20931;-68
2021/08/26 09:49:30;;;;;;;6.70;4.45;;;;;;;23.55;58.54;99735.78;1812959;79;21411;-67
2021/08/26 09:52:09;;;;;;;6.47;4.85;;;;;;;23.64;58.30;99727.71;1805080;79;21044;-69
2021/08/26 09:54:45;;;;;;;5.15;4.65;;;;;;;23.70;57.89;99736.27;1811781;79;21094;-68
2021/08/26 09:57:33;;;;;;;5.05;4.58;;;;;;;23.59;57.74;99747.27;1791137;79;21798;-68
2021/08/26 10:00:00;;;;;;;4.95;4.42;;;;;;;23.42;58.14;99752.88;1780283;80;20932;-67
2021/08/26 10:02:29;;;;;;;4.90;4.20;;;;;;;23.34;58.52;99755.31;1781061;79;20936;-68
2021/08/26 10:04:56;;;;;;;5.60;4.60;;;;;;;23.28;58.69;99760.78;1780312;80;20956;-68
2021/08/26 10:07:24;;;;;;;6.50;4.42;;;;;;;23.24;59.01;99765.77;1780159;80;20987;-68
2021/08/26 10:09:52;;;;;;;4.78;4.28;;;;;;;23.20;59.01;99767.78;1751885;80;22907;-68
2021/08/26 10:12:18;;;;;;;4.87;4.47;;;;;;;23.15;59.28;99765.73;1779915;80;20916;-69
2021/08/26 10:14:51;;;;;;;4.85;4.17;;;;;;;23.12;59.56;99757.56;1780004;80;21014;-68
2021/08/26 10:17:18;;;;;;;4.85;4.42;;;;;;;23.09;60.07;99763.92;1780217;80;21008;-69
2021/08/26 10:19:44;;;;;;;7.33;4.37;;;;;;;23.00;60.08;99759.32;1781893;79;20979;-68
2021/08/26 10:22:11;;;;;;;4.85;4.28;;;;;;;22.98;60.11;99760.06;1780096;80;22212;-68
2021/08/26 10:24:38;;;;;;;7.40;5.08;;;;;;;22.96;60.26;99758.09;1780294;80;21255;-68
2021/08/26 10:27:12;;;;;;;5.75;4.65;;;;;;;22.91;60.23;99755.75;1783587;80;20991;-68
2021/08/26 10:29:44;;;;;;;4.70;4.30;;;;;;;22.80;60.22;99751.86;1779759;79;20948;-69
2021/08/26 10:32:19;;;;;;;4.97;4.47;;;;;;;22.74;60.45;99752.19;1783609;80;21090;-69
2021/08/26 10:35:07;;;;;;;4.53;4.12;;;;;;;22.71;60.58;99751.28;1784588;79;22019;-70
2021/08/26 10:37:55;;;;;;;7.17;4.45;;;;;;;22.68;60.87;99743.65;1815692;78;21560;-69
2021/08/26 10:40:34;;;;;;;5.20;4.70;;;;;;;22.70;61.19;99744.25;1814638;79;20948;-69
2021/08/26 10:43:03;;;;;;;5.08;4.62;;;;;;;22.74;61.29;99746.80;1812440;78;20999;-70
2021/08/26 10:45:49;;;;;;;5.58;4.90;;;;;;;22.69;61.18;99741.78;1783608;79;21050;-71
2021/08/26 10:48:19;;;;;;;4.90;4.40;;;;;;;22.68;61.27;99738.76;1789784;79;21832;-69
2021/08/26 10:50:49;;;;;;;5.00;4.50;;;;;;;22.68;61.29;99738.27;1783692;80;20948;-69
2021/08/26 10:53:28;;;;;;;4.97;4.08;;;;;;;22.67;61.25;99745.19;1780176;79;20959;-69
2021/08/26 10:55:58;;;;;;;5.35;4.78;;;;;;;22.64;61.21;99741.06;1781136;79;21396;-70
2021/08/26 10:58:33;;;;;;;5.08;4.53;;;;;;;22.54;61.23;99750.95;1799574;79;21501;-69
2021/08/26 11:01:11;;;;;;;5.65;4.15;;;;;;;22.53;61.52;99739.88;1783895;80;21792;-69
2021/08/26 11:03:46;;;;;;;5.08;4.42;;;;;;;22.59;61.79;99726.63;1783377;80;20932;-70
2021/08/26 11:06:22;;;;;;;4.97;4.40;;;;;;;22.65;61.99;99729.78;1784002;80;21019;-69
2021/08/26 11:08:54;;;;;;;6.12;4.50;;;;;;;22.65;61.77;99727.08;1767224;80;21057;-70
2021/08/26 11:11:32;;;;;;;6.90;4.40;;;;;;;22.60;61.42;99727.75;1759796;80;21374;-70
2021/08/26 11:14:20;;;;;;;6.05;4.60;;;;;;;22.53;61.38;99726.95;1768109;81;22461;-69
2021/08/26 11:16:49;;;;;;;5.33;4.80;;;;;;;22.46;61.54;99727.49;1789618;79;20935;-70
2021/08/26 11:19:21;;;;;;;8.63;4.60;;;;;;;22.39;61.85;99724.86;1767907;80;21092;-70
2021/08/26 11:21:56;;;;;;;5.40;4.30;;;;;;;22.33;61.98;99718.16;1767668;81;20962;-70
2021/08/26 11:24:28;;;;;;;5.47;4.87;;;;;;;22.25;62.21;99719.22;1768119;81;21041;-70
2021/08/26 11:27:18;;;;;;;5.45;4.47;;;;;;;22.16;62.36;99717.80;1757630;80;22415;-70
2021/08/26 11:29:45;;;;;;;6.83;5.12;;;;;;;22.10;62.50;99699.33;1774491;79;21022;-70
2021/08/26 11:32:14;;;;;;;4.83;4.42;;;;;;;21.97;62.67;99679.16;1779134;80;20979;-70
2021/08/26 11:34:44;;;;;;;5.05;4.55;;;;;;;21.92;63.15;99666.36;1779335;80;21069;-70
2021/08/26 11:37:16;;;;;;;5.65;4.37;;;;;;;21.92;63.47;99665.02;1769342;81;21011;-69
2021/08/26 11:39:52;;;;;;;5.33;4.83;;;;;;;21.91;63.65;99658.52;1771155;81;21814;-71
2021/08/26 11:42:38;;;;;;;5.15;4.65;;;;;;;21.86;64.04;99656.97;1755805;81;20952;-70